sensor_id;sensor_type;location;lat;lon;timestamp;temperature;humidity
4647;DHT22;2336;47.822;7.564;2023-07-24T00:00:42;20.60;99.90
4647;DHT22;2336;47.822;7.564;2023-07-24T00:03:10;20.60;99.90
4647;DHT22;2336;47.822;7.564;2023-07-24T00:05:37;20.50;99.90
4647;DHT22;2336;47.822;7.564;2023-07-24T00:08:04;20.50;99.90
4647;DHT22;2336;47.822;7.564;2023-07-24T00:10:32;20.50;99.90
4647;DHT22;2336;47.822;7.564;2023-07-24T00:12:58;20.50;99.90
4647;DHT22;2336;47.822;7.564;2023-07-24T00:15:26;20.50;99.90
4647;DHT22;2336;47.822;7.564;2023-07-24T00:17:53;20.50;99.90
4647;DHT22;2336;47.822;7.564;2023-07-24T00:20:21;20.50;99.90
4647;DHT22;2336;47.822;7.564;2023-07-24T00:22:49;20.50;99.90
4647;DHT22;2336;47.822;7.564;2023-07-24T00:25:16;20.50;99.90
4647;DHT22;2336;47.822;7.564;2023-07-24T00:27:43;20.60;99.90
4647;DHT22;2336;47.822;7.564;2023-07-24T00:30:10;20.60;99.90
4647;DHT22;2336;47.822;7.564;2023-07-24T00:32:37;20.50;99.90
4647;DHT22;2336;47.822;7.564;2023-07-24T00:35:04;20.50;99.90
4647;DHT22;2336;47.822;7.564;2023-07-24T00:37:33;20.50;99.90
4647;DHT22;2336;47.822;7.564;2023-07-24T00:40:00;20.50;99.90
4647;DHT22;2336;47.822;7.564;2023-07-24T00:42:26;20.50;99.90
4647;DHT22;2336;47.822;7.564;2023-07-24T00:44:53;20.50;99.90
4647;DHT22;2336;47.822;7.564;2023-07-24T00:47:20;20.50;99.90
4647;DHT22;2336;47.822;7.564;2023-07-24T00:49:47;20.50;99.90
4647;DHT22;2336;47.822;7.564;2023-07-24T00:52:15;20.40;99.90
4647;DHT22;2336;47.822;7.564;2023-07-24T00:54:43;20.40;99.90
4647;DHT22;2336;47.822;7.564;2023-07-24T00:57:12;20.40;99.90
4647;DHT22;2336;47.822;7.564;2023-07-24T00:59:39;20.40;99.90
4647;DHT22;2336;47.822;7.564;2023-07-24T01:02:07;20.30;99.90
4647;DHT22;2336;47.822;7.564;2023-07-24T01:04:34;20.30;99.90
4647;DHT22;2336;47.822;7.564;2023-07-24T01:07:01;20.20;99.90
4647;DHT22;2336;47.822;7.564;2023-07-24T01:09:28;20.20;99.90
4647;DHT22;2336;47.822;7.564;2023-07-24T01:11:59;20.20;99.90
4647;DHT22;2336;47.822;7.564;2023-07-24T01:14:32;20.20;99.90
4647;DHT22;2336;47.822;7.564;2023-07-24T01:17:00;20.20;99.90
4647;DHT22;2336;47.822;7.564;2023-07-24T01:19:36;20.20;99.90
4647;DHT22;2336;47.822;7.564;2023-07-24T01:22:10;20.20;99.90
4647;DHT22;2336;47.822;7.564;2023-07-24T01:24:52;20.20;99.90
4647;DHT22;2336;47.822;7.564;2023-07-24T01:27:26;20.20;99.90
4647;DHT22;2336;47.822;7.564;2023-07-24T01:29:53;20.20;99.90
4647;DHT22;2336;47.822;7.564;2023-07-24T01:32:20;20.20;99.90
4647;DHT22;2336;47.822;7.564;2023-07-24T01:34:47;20.10;99.90
4647;DHT22;2336;47.822;7.564;2023-07-24T01:37:14;20.10;99.90
4647;DHT22;2336;47.822;7.564;2023-07-24T01:39:42;20.10;99.90
4647;DHT22;2336;47.822;7.564;2023-07-24T01:42:10;20.10;99.90
4647;DHT22;2336;47.822;7.564;2023-07-24T01:44:38;20.10;99.90
4647;DHT22;2336;47.822;7.564;2023-07-24T01:47:05;20.10;99.90
4647;DHT22;2336;47.822;7.564;2023-07-24T01:49:31;20.10;99.90
4647;DHT22;2336;47.822;7.564;2023-07-24T01:51:58;20.10;99.90
4647;DHT22;2336;47.822;7.564;2023-07-24T01:54:25;20.10;99.90
4647;DHT22;2336;47.822;7.564;2023-07-24T01:56:52;20.20;99.90
4647;DHT22;2336;47.822;7.564;2023-07-24T01:59:18;20.20;99.90
4647;DHT22;2336;47.822;7.564;2023-07-24T02:01:46;20.20;99.90
4647;DHT22;2336;47.822;7.564;2023-07-24T02:04:13;20.20;99.90
4647;DHT22;2336;47.822;7.564;2023-07-24T02:06:40;20.20;99.90
4647;DHT22;2336;47.822;7.564;2023-07-24T02:09:07;20.20;99.90
4647;DHT22;2336;47.822;7.564;2023-07-24T02:11:33;20.20;99.90
4647;DHT22;2336;47.822;7.564;2023-07-24T02:14:00;20.10;99.90
4647;DHT22;2336;47.822;7.564;2023-07-24T02:16:27;20.10;99.90
4647;DHT22;2336;47.822;7.564;2023-07-24T02:18:55;20.10;99.90
4647;DHT22;2336;47.822;7.564;2023-07-24T02:21:21;20.10;99.90
4647;DHT22;2336;47.822;7.564;2023-07-24T02:23:48;20.10;99.90
4647;DHT22;2336;47.822;7.564;2023-07-24T02:26:15;20.00;99.90
4647;DHT22;2336;47.822;7.564;2023-07-24T02:28:42;20.00;99.90
4647;DHT22;2336;47.822;7.564;2023-07-24T02:31:08;19.90;99.90
4647;DHT22;2336;47.822;7.564;2023-07-24T02:33:35;19.90;99.90
4647;DHT22;2336;47.822;7.564;2023-07-24T02:36:03;19.90;99.90
4647;DHT22;2336;47.822;7.564;2023-07-24T02:38:30;19.90;99.90
4647;DHT22;2336;47.822;7.564;2023-07-24T02:40:57;19.90;99.90
4647;DHT22;2336;47.822;7.564;2023-07-24T02:43:24;19.80;99.90
4647;DHT22;2336;47.822;7.564;2023-07-24T02:45:50;19.80;99.90
4647;DHT22;2336;47.822;7.564;2023-07-24T02:48:17;19.80;99.90
4647;DHT22;2336;47.822;7.564;2023-07-24T02:50:44;19.90;99.90
4647;DHT22;2336;47.822;7.564;2023-07-24T02:53:12;19.90;99.90
4647;DHT22;2336;47.822;7.564;2023-07-24T02:55:42;20.00;99.90
4647;DHT22;2336;47.822;7.564;2023-07-24T02:58:10;20.00;99.90
4647;DHT22;2336;47.822;7.564;2023-07-24T03:00:37;20.10;99.90
4647;DHT22;2336;47.822;7.564;2023-07-24T03:03:04;20.10;99.90
4647;DHT22;2336;47.822;7.564;2023-07-24T03:05:31;20.10;99.90
4647;DHT22;2336;47.822;7.564;2023-07-24T03:07:57;20.10;99.90
4647;DHT22;2336;47.822;7.564;2023-07-24T03:10:26;20.10;99.90
4647;DHT22;2336;47.822;7.564;2023-07-24T03:12:52;20.10;99.90
4647;DHT22;2336;47.822;7.564;2023-07-24T03:15:19;20.10;99.90
4647;DHT22;2336;47.822;7.564;2023-07-24T03:17:46;20.10;99.90
4647;DHT22;2336;47.822;7.564;2023-07-24T03:20:15;20.10;99.90
4647;DHT22;2336;47.822;7.564;2023-07-24T03:22:42;20.10;99.90
4647;DHT22;2336;47.822;7.564;2023-07-24T03:25:09;20.20;99.90
4647;DHT22;2336;47.822;7.564;2023-07-24T03:27:38;20.20;99.90
4647;DHT22;2336;47.822;7.564;2023-07-24T03:30:06;20.20;99.90
4647;DHT22;2336;47.822;7.564;2023-07-24T03:32:33;20.30;99.90
4647;DHT22;2336;47.822;7.564;2023-07-24T03:34:59;20.30;99.90
4647;DHT22;2336;47.822;7.564;2023-07-24T03:37:26;20.30;99.90
4647;DHT22;2336;47.822;7.564;2023-07-24T03:39:53;20.30;99.90
4647;DHT22;2336;47.822;7.564;2023-07-24T03:42:27;20.30;99.90
4647;DHT22;2336;47.822;7.564;2023-07-24T03:44:55;20.30;99.90
4647;DHT22;2336;47.822;7.564;2023-07-24T03:47:22;20.30;99.90
4647;DHT22;2336;47.822;7.564;2023-07-24T03:49:50;20.30;99.90
4647;DHT22;2336;47.822;7.564;2023-07-24T03:52:16;20.40;99.90
4647;DHT22;2336;47.822;7.564;2023-07-24T03:54:44;20.40;99.90
4647;DHT22;2336;47.822;7.564;2023-07-24T03:57:11;20.40;99.90
4647;DHT22;2336;47.822;7.564;2023-07-24T03:59:38;20.40;99.90
4647;DHT22;2336;47.822;7.564;2023-07-24T04:02:06;20.50;99.90
4647;DHT22;2336;47.822;7.564;2023-07-24T04:04:33;20.50;99.90
4647;DHT22;2336;47.822;7.564;2023-07-24T04:06:59;20.40;99.90
4647;DHT22;2336;47.822;7.564;2023-07-24T04:09:26;20.40;99.90
4647;DHT22;2336;47.822;7.564;2023-07-24T04:11:53;20.40;99.90
4647;DHT22;2336;47.822;7.564;2023-07-24T04:14:20;20.40;99.90
4647;DHT22;2336;47.822;7.564;2023-07-24T04:16:46;20.50;99.90
4647;DHT22;2336;47.822;7.564;2023-07-24T04:19:14;20.50;99.90
4647;DHT22;2336;47.822;7.564;2023-07-24T04:21:41;20.60;99.90
4647;DHT22;2336;47.822;7.564;2023-07-24T04:24:08;20.60;99.90
4647;DHT22;2336;47.822;7.564;2023-07-24T04:26:35;20.70;99.90
4647;DHT22;2336;47.822;7.564;2023-07-24T04:29:01;20.70;99.90
4647;DHT22;2336;47.822;7.564;2023-07-24T04:31:28;20.70;99.90
4647;DHT22;2336;47.822;7.564;2023-07-24T04:33:55;20.80;99.90
4647;DHT22;2336;47.822;7.564;2023-07-24T04:36:23;20.80;99.90
4647;DHT22;2336;47.822;7.564;2023-07-24T04:38:50;20.80;99.90
4647;DHT22;2336;47.822;7.564;2023-07-24T04:41:16;20.80;99.90
4647;DHT22;2336;47.822;7.564;2023-07-24T04:43:43;20.80;99.90
4647;DHT22;2336;47.822;7.564;2023-07-24T04:46:10;20.80;99.90
4647;DHT22;2336;47.822;7.564;2023-07-24T04:48:36;20.90;99.90
4647;DHT22;2336;47.822;7.564;2023-07-24T04:51:03;20.80;99.90
4647;DHT22;2336;47.822;7.564;2023-07-24T04:53:31;20.80;99.90
4647;DHT22;2336;47.822;7.564;2023-07-24T04:55:58;20.80;99.90
4647;DHT22;2336;47.822;7.564;2023-07-24T04:58:25;20.80;99.90
4647;DHT22;2336;47.822;7.564;2023-07-24T05:00:51;20.80;99.90
4647;DHT22;2336;47.822;7.564;2023-07-24T05:03:18;20.80;99.90
4647;DHT22;2336;47.822;7.564;2023-07-24T05:05:48;20.70;99.90
4647;DHT22;2336;47.822;7.564;2023-07-24T05:08:15;20.80;99.90
4647;DHT22;2336;47.822;7.564;2023-07-24T05:10:43;20.80;99.90
4647;DHT22;2336;47.822;7.564;2023-07-24T05:13:10;20.80;99.90
4647;DHT22;2336;47.822;7.564;2023-07-24T05:15:37;20.90;99.90
4647;DHT22;2336;47.822;7.564;2023-07-24T05:18:04;20.80;99.90
4647;DHT22;2336;47.822;7.564;2023-07-24T05:20:30;20.90;99.90
4647;DHT22;2336;47.822;7.564;2023-07-24T05:22:57;20.90;99.90
4647;DHT22;2336;47.822;7.564;2023-07-24T05:25:24;20.90;99.90
4647;DHT22;2336;47.822;7.564;2023-07-24T05:27:52;20.90;99.90
4647;DHT22;2336;47.822;7.564;2023-07-24T05:30:18;20.90;99.90
4647;DHT22;2336;47.822;7.564;2023-07-24T05:32:45;21.00;99.90
4647;DHT22;2336;47.822;7.564;2023-07-24T05:35:12;21.00;99.90
4647;DHT22;2336;47.822;7.564;2023-07-24T05:37:38;21.00;99.90
4647;DHT22;2336;47.822;7.564;2023-07-24T05:40:06;21.00;99.90
4647;DHT22;2336;47.822;7.564;2023-07-24T05:42:33;21.00;99.90
4647;DHT22;2336;47.822;7.564;2023-07-24T05:45:07;20.90;99.90
4647;DHT22;2336;47.822;7.564;2023-07-24T05:47:34;20.90;99.90
4647;DHT22;2336;47.822;7.564;2023-07-24T05:50:01;20.90;99.90
4647;DHT22;2336;47.822;7.564;2023-07-24T05:52:28;20.90;99.90
4647;DHT22;2336;47.822;7.564;2023-07-24T05:54:55;20.90;99.90
4647;DHT22;2336;47.822;7.564;2023-07-24T05:57:21;21.00;99.90
4647;DHT22;2336;47.822;7.564;2023-07-24T05:59:48;21.00;99.90
4647;DHT22;2336;47.822;7.564;2023-07-24T06:02:17;21.00;99.90
4647;DHT22;2336;47.822;7.564;2023-07-24T06:04:44;21.00;99.90
4647;DHT22;2336;47.822;7.564;2023-07-24T06:07:11;21.00;99.90
4647;DHT22;2336;47.822;7.564;2023-07-24T06:09:37;21.00;99.90
4647;DHT22;2336;47.822;7.564;2023-07-24T06:12:05;21.00;99.90
4647;DHT22;2336;47.822;7.564;2023-07-24T06:14:31;21.10;99.90
4647;DHT22;2336;47.822;7.564;2023-07-24T06:16:58;21.20;99.90
4647;DHT22;2336;47.822;7.564;2023-07-24T06:19:26;21.20;99.90
4647;DHT22;2336;47.822;7.564;2023-07-24T06:21:53;21.20;99.90
4647;DHT22;2336;47.822;7.564;2023-07-24T06:24:20;21.10;99.90
4647;DHT22;2336;47.822;7.564;2023-07-24T06:26:46;21.10;99.90
4647;DHT22;2336;47.822;7.564;2023-07-24T06:29:13;21.10;99.90
4647;DHT22;2336;47.822;7.564;2023-07-24T06:31:40;21.10;99.90
4647;DHT22;2336;47.822;7.564;2023-07-24T06:34:07;21.10;99.90
4647;DHT22;2336;47.822;7.564;2023-07-24T06:36:35;21.20;99.90
4647;DHT22;2336;47.822;7.564;2023-07-24T06:39:02;21.20;99.90
4647;DHT22;2336;47.822;7.564;2023-07-24T06:41:28;21.30;99.90
4647;DHT22;2336;47.822;7.564;2023-07-24T06:43:55;21.30;99.90
4647;DHT22;2336;47.822;7.564;2023-07-24T06:46:22;21.40;99.90
4647;DHT22;2336;47.822;7.564;2023-07-24T06:48:48;21.50;99.90
4647;DHT22;2336;47.822;7.564;2023-07-24T06:51:15;21.60;99.90
4647;DHT22;2336;47.822;7.564;2023-07-24T06:53:43;21.70;99.90
4647;DHT22;2336;47.822;7.564;2023-07-24T06:56:10;21.80;99.90
4647;DHT22;2336;47.822;7.564;2023-07-24T06:58:36;21.90;99.90
4647;DHT22;2336;47.822;7.564;2023-07-24T07:01:05;22.00;99.90
4647;DHT22;2336;47.822;7.564;2023-07-24T07:03:32;22.10;99.90
4647;DHT22;2336;47.822;7.564;2023-07-24T07:06:00;22.30;99.90
4647;DHT22;2336;47.822;7.564;2023-07-24T07:08:28;22.50;99.90
4647;DHT22;2336;47.822;7.564;2023-07-24T07:10:56;22.60;99.90
4647;DHT22;2336;47.822;7.564;2023-07-24T07:13:23;22.70;99.90
4647;DHT22;2336;47.822;7.564;2023-07-24T07:15:50;22.60;99.90
4647;DHT22;2336;47.822;7.564;2023-07-24T07:18:17;22.50;99.90
4647;DHT22;2336;47.822;7.564;2023-07-24T07:20:45;22.50;99.90
4647;DHT22;2336;47.822;7.564;2023-07-24T07:23:12;22.50;99.90
4647;DHT22;2336;47.822;7.564;2023-07-24T07:25:39;22.40;99.90
4647;DHT22;2336;47.822;7.564;2023-07-24T07:28:07;22.30;99.90
4647;DHT22;2336;47.822;7.564;2023-07-24T07:30:34;22.20;99.90
4647;DHT22;2336;47.822;7.564;2023-07-24T07:33:01;22.10;99.90
4647;DHT22;2336;47.822;7.564;2023-07-24T07:35:28;22.10;99.90
4647;DHT22;2336;47.822;7.564;2023-07-24T07:37:54;21.90;99.90
4647;DHT22;2336;47.822;7.564;2023-07-24T07:40:21;21.70;99.90
4647;DHT22;2336;47.822;7.564;2023-07-24T07:42:48;21.60;99.90
4647;DHT22;2336;47.822;7.564;2023-07-24T07:45:16;21.50;99.90
4647;DHT22;2336;47.822;7.564;2023-07-24T07:47:43;21.50;99.90
4647;DHT22;2336;47.822;7.564;2023-07-24T07:50:10;21.50;99.90
4647;DHT22;2336;47.822;7.564;2023-07-24T07:52:37;21.50;99.90
4647;DHT22;2336;47.822;7.564;2023-07-24T07:55:04;21.50;99.90
4647;DHT22;2336;47.822;7.564;2023-07-24T07:57:33;21.50;99.90
4647;DHT22;2336;47.822;7.564;2023-07-24T08:00:00;21.60;99.90
4647;DHT22;2336;47.822;7.564;2023-07-24T08:02:28;21.50;99.90
4647;DHT22;2336;47.822;7.564;2023-07-24T08:04:55;21.50;99.90
4647;DHT22;2336;47.822;7.564;2023-07-24T08:07:22;21.50;99.90
4647;DHT22;2336;47.822;7.564;2023-07-24T08:09:49;21.60;99.90
4647;DHT22;2336;47.822;7.564;2023-07-24T08:12:16;21.60;99.90
4647;DHT22;2336;47.822;7.564;2023-07-24T08:14:42;21.70;99.90
4647;DHT22;2336;47.822;7.564;2023-07-24T08:17:09;21.70;99.90
4647;DHT22;2336;47.822;7.564;2023-07-24T08:19:37;21.80;99.90
4647;DHT22;2336;47.822;7.564;2023-07-24T08:22:04;21.90;99.90
4647;DHT22;2336;47.822;7.564;2023-07-24T08:24:33;22.10;99.90
4647;DHT22;2336;47.822;7.564;2023-07-24T08:27:00;22.10;99.90
4647;DHT22;2336;47.822;7.564;2023-07-24T08:29:27;22.20;99.90
4647;DHT22;2336;47.822;7.564;2023-07-24T08:31:53;22.10;99.90
4647;DHT22;2336;47.822;7.564;2023-07-24T08:34:20;21.50;99.90
4647;DHT22;2336;47.822;7.564;2023-07-24T08:36:48;20.10;99.90
4647;DHT22;2336;47.822;7.564;2023-07-24T08:39:15;19.50;99.90
4647;DHT22;2336;47.822;7.564;2023-07-24T08:41:42;19.20;99.90
4647;DHT22;2336;47.822;7.564;2023-07-24T08:44:09;19.20;99.90
4647;DHT22;2336;47.822;7.564;2023-07-24T08:46:36;19.00;99.90
4647;DHT22;2336;47.822;7.564;2023-07-24T08:49:04;18.90;99.90
4647;DHT22;2336;47.822;7.564;2023-07-24T08:51:31;18.70;99.90
4647;DHT22;2336;47.822;7.564;2023-07-24T08:54:01;18.50;99.90
4647;DHT22;2336;47.822;7.564;2023-07-24T08:56:29;18.30;99.90
4647;DHT22;2336;47.822;7.564;2023-07-24T08:58:56;18.20;99.90
4647;DHT22;2336;47.822;7.564;2023-07-24T09:01:23;18.10;99.90
4647;DHT22;2336;47.822;7.564;2023-07-24T09:03:50;17.90;99.90
4647;DHT22;2336;47.822;7.564;2023-07-24T09:06:17;18.00;99.90
4647;DHT22;2336;47.822;7.564;2023-07-24T09:08:44;17.70;99.90
4647;DHT22;2336;47.822;7.564;2023-07-24T09:11:14;15.80;99.90
4647;DHT22;2336;47.822;7.564;2023-07-24T09:13:42;14.80;99.90
4647;DHT22;2336;47.822;7.564;2023-07-24T09:16:10;14.70;99.90
4647;DHT22;2336;47.822;7.564;2023-07-24T09:18:46;14.80;99.90
4647;DHT22;2336;47.822;7.564;2023-07-24T09:21:13;14.90;99.90
4647;DHT22;2336;47.822;7.564;2023-07-24T09:23:40;15.10;99.90
4647;DHT22;2336;47.822;7.564;2023-07-24T09:26:09;15.20;99.90
4647;DHT22;2336;47.822;7.564;2023-07-24T09:28:37;15.40;99.90
4647;DHT22;2336;47.822;7.564;2023-07-24T09:31:03;15.40;99.90
4647;DHT22;2336;47.822;7.564;2023-07-24T09:33:35;15.50;99.90
4647;DHT22;2336;47.822;7.564;2023-07-24T09:36:03;15.60;99.90
4647;DHT22;2336;47.822;7.564;2023-07-24T09:38:30;15.60;99.90
4647;DHT22;2336;47.822;7.564;2023-07-24T09:40:57;15.60;99.90
4647;DHT22;2336;47.822;7.564;2023-07-24T09:43:25;15.70;99.90
4647;DHT22;2336;47.822;7.564;2023-07-24T09:45:54;15.70;99.90
4647;DHT22;2336;47.822;7.564;2023-07-24T09:48:23;15.80;99.90
4647;DHT22;2336;47.822;7.564;2023-07-24T09:50:53;15.80;99.90
4647;DHT22;2336;47.822;7.564;2023-07-24T09:53:22;15.90;99.90
4647;DHT22;2336;47.822;7.564;2023-07-24T09:55:54;15.90;99.90
4647;DHT22;2336;47.822;7.564;2023-07-24T09:58:23;15.90;99.90
4647;DHT22;2336;47.822;7.564;2023-07-24T10:00:52;15.90;99.90
4647;DHT22;2336;47.822;7.564;2023-07-24T10:03:21;15.90;99.90
4647;DHT22;2336;47.822;7.564;2023-07-24T10:05:49;15.80;99.90
4647;DHT22;2336;47.822;7.564;2023-07-24T10:08:18;15.80;99.90
4647;DHT22;2336;47.822;7.564;2023-07-24T10:10:45;15.90;99.90
4647;DHT22;2336;47.822;7.564;2023-07-24T10:13:13;16.10;99.90
4647;DHT22;2336;47.822;7.564;2023-07-24T10:15:41;16.30;99.90
4647;DHT22;2336;47.822;7.564;2023-07-24T10:18:10;16.50;99.90
4647;DHT22;2336;47.822;7.564;2023-07-24T10:20:38;16.80;99.90
4647;DHT22;2336;47.822;7.564;2023-07-24T10:23:06;17.10;99.90
4647;DHT22;2336;47.822;7.564;2023-07-24T10:25:35;17.30;99.90
4647;DHT22;2336;47.822;7.564;2023-07-24T10:28:03;17.50;99.90
4647;DHT22;2336;47.822;7.564;2023-07-24T10:30:33;17.70;99.90
4647;DHT22;2336;47.822;7.564;2023-07-24T10:33:04;17.80;99.90
4647;DHT22;2336;47.822;7.564;2023-07-24T10:35:41;18.10;99.90
4647;DHT22;2336;47.822;7.564;2023-07-24T10:38:09;18.30;99.90
4647;DHT22;2336;47.822;7.564;2023-07-24T10:40:36;18.50;99.90
4647;DHT22;2336;47.822;7.564;2023-07-24T10:43:06;18.70;99.90
4647;DHT22;2336;47.822;7.564;2023-07-24T10:45:46;18.90;99.90
4647;DHT22;2336;47.822;7.564;2023-07-24T10:48:13;18.90;99.90
4647;DHT22;2336;47.822;7.564;2023-07-24T10:50:42;18.90;99.90
4647;DHT22;2336;47.822;7.564;2023-07-24T10:53:09;19.00;99.90
4647;DHT22;2336;47.822;7.564;2023-07-24T10:55:36;18.70;99.90
4647;DHT22;2336;47.822;7.564;2023-07-24T10:58:03;18.60;99.90
4647;DHT22;2336;47.822;7.564;2023-07-24T11:00:30;18.40;99.90
4647;DHT22;2336;47.822;7.564;2023-07-24T11:02:57;18.40;99.90
4647;DHT22;2336;47.822;7.564;2023-07-24T11:05:24;18.40;99.90
4647;DHT22;2336;47.822;7.564;2023-07-24T11:07:52;18.20;99.90
4647;DHT22;2336;47.822;7.564;2023-07-24T11:10:20;18.20;99.90
4647;DHT22;2336;47.822;7.564;2023-07-24T11:12:47;18.20;99.90
4647;DHT22;2336;47.822;7.564;2023-07-24T11:15:15;18.00;99.90
4647;DHT22;2336;47.822;7.564;2023-07-24T11:17:42;18.00;99.90
4647;DHT22;2336;47.822;7.564;2023-07-24T11:20:11;17.80;99.90
4647;DHT22;2336;47.822;7.564;2023-07-24T11:22:39;17.70;99.90
4647;DHT22;2336;47.822;7.564;2023-07-24T11:25:08;17.70;99.90
4647;DHT22;2336;47.822;7.564;2023-07-24T11:27:38;17.80;99.90
4647;DHT22;2336;47.822;7.564;2023-07-24T11:30:08;17.90;99.90
4647;DHT22;2336;47.822;7.564;2023-07-24T11:32:35;17.80;99.90
4647;DHT22;2336;47.822;7.564;2023-07-24T11:35:02;17.90;99.90
4647;DHT22;2336;47.822;7.564;2023-07-24T11:37:29;17.80;99.90
4647;DHT22;2336;47.822;7.564;2023-07-24T11:39:57;17.90;99.90
4647;DHT22;2336;47.822;7.564;2023-07-24T11:42:26;17.90;99.90
4647;DHT22;2336;47.822;7.564;2023-07-24T11:44:54;17.90;99.90
4647;DHT22;2336;47.822;7.564;2023-07-24T11:47:21;17.90;99.90
4647;DHT22;2336;47.822;7.564;2023-07-24T11:49:57;17.80;99.90
4647;DHT22;2336;47.822;7.564;2023-07-24T11:52:24;17.80;99.90
4647;DHT22;2336;47.822;7.564;2023-07-24T11:54:57;17.80;99.90
4647;DHT22;2336;47.822;7.564;2023-07-24T11:57:28;17.90;99.90
4647;DHT22;2336;47.822;7.564;2023-07-24T11:59:55;17.90;99.90
4647;DHT22;2336;47.822;7.564;2023-07-24T12:02:25;18.10;99.90
4647;DHT22;2336;47.822;7.564;2023-07-24T12:04:56;18.30;99.90
4647;DHT22;2336;47.822;7.564;2023-07-24T12:07:29;18.40;99.90
4647;DHT22;2336;47.822;7.564;2023-07-24T12:09:56;18.50;99.90
4647;DHT22;2336;47.822;7.564;2023-07-24T12:12:23;18.50;99.90
4647;DHT22;2336;47.822;7.564;2023-07-24T12:14:51;18.50;99.90
4647;DHT22;2336;47.822;7.564;2023-07-24T12:17:18;18.50;99.90
4647;DHT22;2336;47.822;7.564;2023-07-24T12:19:46;18.60;99.90
4647;DHT22;2336;47.822;7.564;2023-07-24T12:22:13;18.70;99.90
4647;DHT22;2336;47.822;7.564;2023-07-24T12:24:40;18.90;99.90
4647;DHT22;2336;47.822;7.564;2023-07-24T12:27:07;19.00;99.90
4647;DHT22;2336;47.822;7.564;2023-07-24T12:29:34;19.30;99.90
4647;DHT22;2336;47.822;7.564;2023-07-24T12:32:02;19.40;99.90
4647;DHT22;2336;47.822;7.564;2023-07-24T12:34:29;19.40;99.90
4647;DHT22;2336;47.822;7.564;2023-07-24T12:36:55;19.40;99.90
4647;DHT22;2336;47.822;7.564;2023-07-24T12:39:22;19.40;99.90
4647;DHT22;2336;47.822;7.564;2023-07-24T12:41:49;19.40;99.90
4647;DHT22;2336;47.822;7.564;2023-07-24T12:44:16;19.30;99.90
4647;DHT22;2336;47.822;7.564;2023-07-24T12:46:42;19.30;99.90
4647;DHT22;2336;47.822;7.564;2023-07-24T12:49:11;19.20;99.90
4647;DHT22;2336;47.822;7.564;2023-07-24T12:51:38;19.20;99.90
4647;DHT22;2336;47.822;7.564;2023-07-24T12:54:05;19.20;99.90
4647;DHT22;2336;47.822;7.564;2023-07-24T12:56:31;19.20;99.90
4647;DHT22;2336;47.822;7.564;2023-07-24T12:58:58;19.20;99.90
4647;DHT22;2336;47.822;7.564;2023-07-24T13:01:25;19.20;99.90
4647;DHT22;2336;47.822;7.564;2023-07-24T13:03:54;19.20;99.90
4647;DHT22;2336;47.822;7.564;2023-07-24T13:06:22;19.20;99.90
4647;DHT22;2336;47.822;7.564;2023-07-24T13:08:49;19.20;99.90
4647;DHT22;2336;47.822;7.564;2023-07-24T13:11:16;19.10;99.90
4647;DHT22;2336;47.822;7.564;2023-07-24T13:13:44;19.00;99.90
4647;DHT22;2336;47.822;7.564;2023-07-24T13:16:11;18.90;99.90
4647;DHT22;2336;47.822;7.564;2023-07-24T13:18:37;18.90;99.90
4647;DHT22;2336;47.822;7.564;2023-07-24T13:21:04;18.80;99.90
4647;DHT22;2336;47.822;7.564;2023-07-24T13:23:34;18.80;99.90
4647;DHT22;2336;47.822;7.564;2023-07-24T13:26:01;18.70;99.90
4647;DHT22;2336;47.822;7.564;2023-07-24T13:28:27;18.70;99.90
4647;DHT22;2336;47.822;7.564;2023-07-24T13:30:54;18.60;99.90
4647;DHT22;2336;47.822;7.564;2023-07-24T13:33:22;18.60;99.90
4647;DHT22;2336;47.822;7.564;2023-07-24T13:35:49;18.60;99.90
4647;DHT22;2336;47.822;7.564;2023-07-24T13:38:16;18.60;99.90
4647;DHT22;2336;47.822;7.564;2023-07-24T13:40:44;18.70;99.90
4647;DHT22;2336;47.822;7.564;2023-07-24T13:43:11;18.90;99.90
4647;DHT22;2336;47.822;7.564;2023-07-24T13:45:38;19.10;99.90
4647;DHT22;2336;47.822;7.564;2023-07-24T13:48:05;19.50;99.90
4647;DHT22;2336;47.822;7.564;2023-07-24T13:50:31;19.70;99.90
4647;DHT22;2336;47.822;7.564;2023-07-24T13:52:58;19.80;99.90
4647;DHT22;2336;47.822;7.564;2023-07-24T13:55:25;19.80;99.90
4647;DHT22;2336;47.822;7.564;2023-07-24T13:57:53;19.90;99.90
4647;DHT22;2336;47.822;7.564;2023-07-24T14:00:20;19.80;99.90
4647;DHT22;2336;47.822;7.564;2023-07-24T14:02:46;19.80;99.90
4647;DHT22;2336;47.822;7.564;2023-07-24T14:05:13;19.80;99.90
4647;DHT22;2336;47.822;7.564;2023-07-24T14:07:40;19.80;99.90
4647;DHT22;2336;47.822;7.564;2023-07-24T14:10:07;19.80;99.90
4647;DHT22;2336;47.822;7.564;2023-07-24T14:12:34;19.90;99.90
4647;DHT22;2336;47.822;7.564;2023-07-24T14:15:03;20.00;99.90
4647;DHT22;2336;47.822;7.564;2023-07-24T14:17:30;20.10;99.90
4647;DHT22;2336;47.822;7.564;2023-07-24T14:19:57;20.40;99.90
4647;DHT22;2336;47.822;7.564;2023-07-24T14:22:24;20.60;99.90
4647;DHT22;2336;47.822;7.564;2023-07-24T14:24:50;20.70;99.90
4647;DHT22;2336;47.822;7.564;2023-07-24T14:27:17;20.80;99.90
4647;DHT22;2336;47.822;7.564;2023-07-24T14:29:44;21.00;99.90
4647;DHT22;2336;47.822;7.564;2023-07-24T14:32:12;21.10;99.90
4647;DHT22;2336;47.822;7.564;2023-07-24T14:34:38;21.10;99.90
4647;DHT22;2336;47.822;7.564;2023-07-24T14:37:05;21.20;99.90
4647;DHT22;2336;47.822;7.564;2023-07-24T14:39:32;21.30;99.90
4647;DHT22;2336;47.822;7.564;2023-07-24T14:41:59;21.40;99.90
4647;DHT22;2336;47.822;7.564;2023-07-24T14:44:26;21.40;99.90
4647;DHT22;2336;47.822;7.564;2023-07-24T14:46:51;21.50;99.90
4647;DHT22;2336;47.822;7.564;2023-07-24T14:49:19;21.50;99.90
4647;DHT22;2336;47.822;7.564;2023-07-24T14:51:46;21.60;99.90
4647;DHT22;2336;47.822;7.564;2023-07-24T14:54:13;21.80;99.90
4647;DHT22;2336;47.822;7.564;2023-07-24T14:56:39;21.90;99.90
4647;DHT22;2336;47.822;7.564;2023-07-24T14:59:06;22.00;99.90
4647;DHT22;2336;47.822;7.564;2023-07-24T15:01:33;22.10;99.90
4647;DHT22;2336;47.822;7.564;2023-07-24T15:03:59;22.20;99.90
4647;DHT22;2336;47.822;7.564;2023-07-24T15:06:28;22.30;99.90
4647;DHT22;2336;47.822;7.564;2023-07-24T15:08:57;22.40;99.90
4647;DHT22;2336;47.822;7.564;2023-07-24T15:11:24;22.30;99.90
4647;DHT22;2336;47.822;7.564;2023-07-24T15:13:51;22.30;99.90
4647;DHT22;2336;47.822;7.564;2023-07-24T15:16:17;22.30;99.90
4647;DHT22;2336;47.822;7.564;2023-07-24T15:18:44;22.40;99.90
4647;DHT22;2336;47.822;7.564;2023-07-24T15:21:11;22.40;99.90
4647;DHT22;2336;47.822;7.564;2023-07-24T15:23:39;22.40;99.90
4647;DHT22;2336;47.822;7.564;2023-07-24T15:26:06;22.40;99.90
4647;DHT22;2336;47.822;7.564;2023-07-24T15:28:32;22.30;99.90
4647;DHT22;2336;47.822;7.564;2023-07-24T15:30:59;22.30;99.90
4647;DHT22;2336;47.822;7.564;2023-07-24T15:33:26;22.20;99.90
4647;DHT22;2336;47.822;7.564;2023-07-24T15:35:54;22.10;99.90
4647;DHT22;2336;47.822;7.564;2023-07-24T15:38:21;22.10;99.90
4647;DHT22;2336;47.822;7.564;2023-07-24T15:40:49;22.10;99.90
4647;DHT22;2336;47.822;7.564;2023-07-24T15:43:15;22.00;99.90
4647;DHT22;2336;47.822;7.564;2023-07-24T15:45:42;22.00;99.90
4647;DHT22;2336;47.822;7.564;2023-07-24T15:48:09;22.00;99.90
4647;DHT22;2336;47.822;7.564;2023-07-24T15:50:36;21.90;99.90
4647;DHT22;2336;47.822;7.564;2023-07-24T15:53:03;21.90;99.90
4647;DHT22;2336;47.822;7.564;2023-07-24T15:55:30;21.90;99.90
4647;DHT22;2336;47.822;7.564;2023-07-24T15:57:58;21.90;99.90
4647;DHT22;2336;47.822;7.564;2023-07-24T16:00:25;22.00;99.90
4647;DHT22;2336;47.822;7.564;2023-07-24T16:02:52;22.00;99.90